createdAt,value
2022-08-20T00:02:01.358Z,61.35
2022-08-20T00:04:25.188Z,60.99
2022-08-20T00:06:48.809Z,61.37
2022-08-20T00:09:12.125Z,61.13
2022-08-20T00:11:35.739Z,61.33
2022-08-20T00:14:02.857Z,61.23
2022-08-20T00:16:27.105Z,60.93
2022-08-20T00:18:50.118Z,60.44
2022-08-20T00:21:18.873Z,60.50
2022-08-20T00:23:43.645Z,59.95
2022-08-20T00:26:06.782Z,60.75
2022-08-20T00:28:30.034Z,60.64
2022-08-20T00:30:54.723Z,60.96
2022-08-20T00:33:22.917Z,60.63
2022-08-20T00:35:48.362Z,60.68
2022-08-20T00:38:11.607Z,60.11
2022-08-20T00:40:36.453Z,59.57
2022-08-20T00:43:02.239Z,59.90
2022-08-20T00:45:25.730Z,59.41
2022-08-20T00:47:51.409Z,59.47
2022-08-20T00:50:17.295Z,59.44
2022-08-20T00:52:41.956Z,59.30
2022-08-20T00:55:13.607Z,58.94
2022-08-20T00:57:46.133Z,58.92
2022-08-20T01:00:24.765Z,59.08
2022-08-20T01:02:48.490Z,58.54
2022-08-20T01:05:13.752Z,58.47
2022-08-20T01:07:37.886Z,58.10
2022-08-20T01:10:01.222Z,58.38
2022-08-20T01:12:25.213Z,57.81
2022-08-20T01:14:48.574Z,57.85
2022-08-20T01:17:14.691Z,57.51
2022-08-20T01:19:40.939Z,57.20
2022-08-20T01:22:26.941Z,57.16
2022-08-20T01:24:50.415Z,57.95
2022-08-20T01:27:15.071Z,58.60
2022-08-20T01:29:39.956Z,58.42
2022-08-20T01:32:03.245Z,59.14
2022-08-20T01:34:26.551Z,58.68
2022-08-20T01:36:51.734Z,58.27
2022-08-20T01:39:17.322Z,58.65
2022-08-20T01:41:49.205Z,58.57
2022-08-20T01:44:16.937Z,58.27
2022-08-20T01:46:43.891Z,58.45
2022-08-20T01:49:13.497Z,58.39
2022-08-20T01:51:37.151Z,58.31
2022-08-20T01:54:00.883Z,58.16
2022-08-20T01:56:25.783Z,57.63
2022-08-20T01:58:55.886Z,57.34
2022-08-20T02:01:23.914Z,57.35
2022-08-20T02:03:47.255Z,57.58
2022-08-20T02:06:10.518Z,57.72
2022-08-20T02:08:33.970Z,57.49
2022-08-20T02:10:57.328Z,57.45
2022-08-20T02:13:20.565Z,57.67
2022-08-20T02:15:43.914Z,57.30
2022-08-20T02:18:11.489Z,57.51
2022-08-20T02:20:34.785Z,57.08
2022-08-20T02:22:59.262Z,57.38
2022-08-20T02:25:23.211Z,58.31
2022-08-20T02:27:47.075Z,58.44
2022-08-20T02:30:27.579Z,58.29
2022-08-20T02:32:51.662Z,58.94
2022-08-20T02:35:21.202Z,59.13
2022-08-20T02:37:44.911Z,58.74
2022-08-20T02:40:09.644Z,58.28
2022-08-20T02:42:32.944Z,59.22
2022-08-20T02:44:58.621Z,58.48
2022-08-20T02:47:21.905Z,58.85
2022-08-20T02:49:45.299Z,58.60
2022-08-20T02:52:10.050Z,58.15
2022-08-20T02:54:33.432Z,58.44
2022-08-20T02:56:56.654Z,58.43
2022-08-20T02:59:20.152Z,58.59
2022-08-20T03:01:43.502Z,58.62
2022-08-20T03:04:06.954Z,58.69
2022-08-20T03:06:30.352Z,58.11
2022-08-20T03:08:55.177Z,57.56
2022-08-20T03:11:18.880Z,58.41
2022-08-20T03:13:42.259Z,58.04
2022-08-20T03:16:05.918Z,57.40
2022-08-20T03:18:34.681Z,57.87
2022-08-20T03:20:58.056Z,58.45
2022-08-20T03:23:21.647Z,58.49
2022-08-20T03:25:46.575Z,58.23
2022-08-20T03:28:09.842Z,58.49
2022-08-20T03:30:33.318Z,58.95
2022-08-20T03:32:56.670Z,58.82
2022-08-20T03:35:20.946Z,58.68
2022-08-20T03:37:44.188Z,58.98
2022-08-20T03:40:15.618Z,58.50
2022-08-20T03:42:40.451Z,58.65
2022-08-20T03:45:03.806Z,58.39
2022-08-20T03:47:27.035Z,58.71
2022-08-20T03:49:50.568Z,58.43
2022-08-20T03:52:14.311Z,58.71
2022-08-20T03:54:37.652Z,58.24
2022-08-20T03:57:03.026Z,58.06
2022-08-20T03:59:37.486Z,58.31
2022-08-20T04:02:01.060Z,58.54
2022-08-20T04:04:24.310Z,58.62
2022-08-20T04:06:48.154Z,58.43
2022-08-20T04:09:12.115Z,58.24
2022-08-20T04:11:35.706Z,58.39
2022-08-20T04:13:58.954Z,58.37
2022-08-20T04:16:23.653Z,58.84
2022-08-20T04:19:01.859Z,58.56
2022-08-20T04:21:26.200Z,58.58
2022-08-20T04:23:56.711Z,58.46
2022-08-20T04:26:20.315Z,58.70
2022-08-20T04:28:43.652Z,58.59
2022-08-20T04:31:06.899Z,58.36
2022-08-20T04:33:34.086Z,58.57
2022-08-20T04:36:00.456Z,58.68
2022-08-20T04:38:24.034Z,58.25
2022-08-20T04:40:57.992Z,58.37
2022-08-20T04:43:23.001Z,58.16
2022-08-20T04:45:47.196Z,58.64
2022-08-20T04:48:14.785Z,58.41
2022-08-20T04:50:40.117Z,58.09
2022-08-20T04:53:03.846Z,58.48
2022-08-20T04:55:27.099Z,58.57
2022-08-20T04:57:50.374Z,58.20
2022-08-20T05:00:16.111Z,58.29
2022-08-20T05:02:39.359Z,58.25
2022-08-20T05:05:02.661Z,57.27
2022-08-20T05:07:27.283Z,57.92
2022-08-20T05:09:50.586Z,57.69
2022-08-20T05:12:18.148Z,57.16
2022-08-20T05:14:41.461Z,57.04
2022-08-20T05:17:06.380Z,57.26
2022-08-20T05:19:30.051Z,56.35
2022-08-20T05:21:53.798Z,56.70
2022-08-20T05:24:18.545Z,56.70
2022-08-20T05:26:41.796Z,56.60
2022-08-20T05:29:06.860Z,56.60
2022-08-20T05:31:31.237Z,56.48
2022-08-20T05:33:57.960Z,56.41
2022-08-20T05:36:22.634Z,56.93
2022-08-20T05:38:49.690Z,56.57
2022-08-20T05:41:14.856Z,56.92
2022-08-20T05:43:52.773Z,56.64
2022-08-20T05:46:16.985Z,56.98
2022-08-20T05:48:40.256Z,56.76
2022-08-20T05:51:03.630Z,56.63
2022-08-20T05:53:27.061Z,56.28
2022-08-20T05:55:50.599Z,56.06
2022-08-20T05:58:19.665Z,55.57
2022-08-20T06:00:42.937Z,55.56
2022-08-20T06:03:23.589Z,55.46
2022-08-20T06:05:46.913Z,55.56
2022-08-20T06:08:10.614Z,55.44
2022-08-20T06:10:33.959Z,55.61
2022-08-20T06:12:57.270Z,55.42
2022-08-20T06:15:22.115Z,55.69
2022-08-20T06:17:46.968Z,55.50
2022-08-20T06:20:21.541Z,55.23
2022-08-20T06:22:47.462Z,55.35
2022-08-20T06:25:11.239Z,55.03
2022-08-20T06:27:34.610Z,55.01
2022-08-20T06:29:59.035Z,54.99
2022-08-20T06:32:32.288Z,54.92
2022-08-20T06:34:56.155Z,54.89
2022-08-20T06:37:21.087Z,54.52
2022-08-20T06:39:44.473Z,54.71
2022-08-20T06:42:07.878Z,54.43
2022-08-20T06:44:31.230Z,54.66
2022-08-20T06:46:55.717Z,54.19
2022-08-20T06:49:20.370Z,54.23
2022-08-20T06:51:43.666Z,54.13
2022-08-20T06:54:07.588Z,53.89
2022-08-20T06:56:30.843Z,53.91
2022-08-20T06:58:54.118Z,53.61
2022-08-20T07:01:18.046Z,53.83
2022-08-20T07:03:42.180Z,53.69
2022-08-20T07:06:19.187Z,53.46
2022-08-20T07:08:42.421Z,53.54
2022-08-20T07:11:05.708Z,53.71
2022-08-20T07:13:29.274Z,53.09
2022-08-20T07:15:53.978Z,53.13
2022-08-20T07:18:17.988Z,53.06
2022-08-20T07:20:55.023Z,52.62
2022-08-20T07:23:19.638Z,52.42
2022-08-20T07:25:43.711Z,51.80
2022-08-20T07:28:08.221Z,51.78
2022-08-20T07:30:57.104Z,51.30
2022-08-20T07:33:21.097Z,51.42
2022-08-20T07:35:48.783Z,51.56
2022-08-20T07:38:15.599Z,51.37
2022-08-20T07:40:40.374Z,51.07
2022-08-20T07:43:03.748Z,51.17
2022-08-20T07:45:26.997Z,50.97
2022-08-20T07:47:53.646Z,51.06
2022-08-20T07:50:19.189Z,50.68
2022-08-20T07:52:42.592Z,51.00
2022-08-20T07:55:06.053Z,50.50
2022-08-20T07:57:30.789Z,50.54
2022-08-20T07:59:54.037Z,50.52
2022-08-20T08:02:17.414Z,50.39
2022-08-20T08:04:40.755Z,50.43
2022-08-20T08:07:04.027Z,50.45
2022-08-20T08:09:27.274Z,50.96
2022-08-20T08:11:52.407Z,51.39
2022-08-20T08:14:18.958Z,51.32
2022-08-20T08:16:45.757Z,51.54
2022-08-20T08:19:12.036Z,51.46
2022-08-20T08:21:35.387Z,51.86
2022-08-20T08:23:58.670Z,52.13
2022-08-20T08:26:22.451Z,52.35
2022-08-20T08:28:45.714Z,52.71
2022-08-20T08:31:10.373Z,52.93
2022-08-20T08:33:33.660Z,52.78
2022-08-20T08:35:57.094Z,52.93
2022-08-20T08:38:20.370Z,52.66
2022-08-20T08:40:43.637Z,52.75
2022-08-20T08:43:07.903Z,52.61
2022-08-20T08:45:43.846Z,53.47
2022-08-20T08:48:08.863Z,53.49
2022-08-20T08:50:54.122Z,53.96
2022-08-20T08:53:18.710Z,54.23
2022-08-20T08:55:42.159Z,53.64
2022-08-20T08:58:16.869Z,53.57
2022-08-20T09:00:55.977Z,53.62
2022-08-20T09:03:26.010Z,53.87
2022-08-20T09:05:50.825Z,54.44
2022-08-20T09:08:17.119Z,54.66
2022-08-20T09:10:40.621Z,54.74
2022-08-20T09:13:03.969Z,55.26
2022-08-20T09:15:27.231Z,55.30
2022-08-20T09:17:50.600Z,55.38
2022-08-20T09:20:15.399Z,54.42
2022-08-20T09:22:38.704Z,54.35
2022-08-20T09:25:03.626Z,54.64
2022-08-20T09:27:26.999Z,54.34
2022-08-20T09:29:50.368Z,54.07
2022-08-20T09:32:15.725Z,54.24
2022-08-20T09:34:40.917Z,54.18
2022-08-20T09:37:05.741Z,54.30
2022-08-20T09:39:29.202Z,54.73
2022-08-20T09:41:52.619Z,54.59
2022-08-20T09:44:15.898Z,55.18
2022-08-20T09:46:39.239Z,55.11
2022-08-20T09:49:02.483Z,55.85
2022-08-20T09:51:25.809Z,56.78
2022-08-20T09:53:50.489Z,57.46
2022-08-20T09:56:13.791Z,57.29
2022-08-20T09:58:38.932Z,57.66
2022-08-20T10:01:02.894Z,57.56
2022-08-20T10:03:26.336Z,57.54
2022-08-20T10:05:49.615Z,57.20
2022-08-20T10:08:13.390Z,57.15
2022-08-20T10:10:38.039Z,56.67
2022-08-20T10:13:02.536Z,56.48
2022-08-20T10:15:25.843Z,56.43
2022-08-20T10:17:49.295Z,57.02
2022-08-20T10:20:13.390Z,56.97
2022-08-20T10:22:36.855Z,56.63
2022-08-20T10:25:00.221Z,56.36
2022-08-20T10:27:24.979Z,56.73
2022-08-20T10:29:48.248Z,56.98
2022-08-20T10:32:12.433Z,57.24
2022-08-20T10:34:36.338Z,57.13
2022-08-20T10:37:00.168Z,57.24
2022-08-20T10:39:23.526Z,57.87
2022-08-20T10:41:46.877Z,58.32
2022-08-20T10:44:11.513Z,58.28
2022-08-20T10:46:34.867Z,58.31
2022-08-20T10:48:58.072Z,58.62
2022-08-20T10:51:21.331Z,58.63
2022-08-20T10:53:55.787Z,59.04
2022-08-20T10:56:19.074Z,59.23
2022-08-20T10:58:42.418Z,59.04
2022-08-20T11:01:09.263Z,59.28
2022-08-20T11:03:32.613Z,59.28
2022-08-20T11:05:55.861Z,59.00
2022-08-20T11:08:33.586Z,59.06
2022-08-20T11:10:57.777Z,59.15
2022-08-20T11:13:21.057Z,58.83
2022-08-20T11:15:44.458Z,59.46
2022-08-20T11:18:09.505Z,59.83
2022-08-20T11:20:32.887Z,60.09
2022-08-20T11:22:56.216Z,60.42
2022-08-20T11:25:19.681Z,60.03
2022-08-20T11:27:45.190Z,60.38
2022-08-20T11:30:10.671Z,60.35
2022-08-20T11:32:33.947Z,60.31
2022-08-20T11:34:58.618Z,60.39
2022-08-20T11:37:22.992Z,60.80
2022-08-20T11:39:46.092Z,60.48
2022-08-20T11:42:09.426Z,60.59
2022-08-20T11:44:32.634Z,60.81
2022-08-20T11:46:59.846Z,60.44
2022-08-20T11:49:23.151Z,60.74
2022-08-20T11:51:50.162Z,60.78
2022-08-20T11:54:13.700Z,60.99
2022-08-20T11:56:38.579Z,61.07
2022-08-20T11:59:09.043Z,61.22
2022-08-20T12:01:35.211Z,61.62
2022-08-20T12:03:58.506Z,61.43
2022-08-20T12:06:21.826Z,61.93
2022-08-20T12:08:46.470Z,61.71
2022-08-20T12:11:09.735Z,61.59
2022-08-20T12:13:47.826Z,61.58
2022-08-20T12:16:12.442Z,61.52
2022-08-20T12:18:35.782Z,61.78
2022-08-20T12:20:59.129Z,61.73
2022-08-20T12:23:22.486Z,61.96
2022-08-20T12:25:47.108Z,61.75
2022-08-20T12:28:10.480Z,61.69
2022-08-20T12:30:33.983Z,61.48
2022-08-20T12:32:57.425Z,61.63
2022-08-20T12:35:21.226Z,61.94
2022-08-20T12:37:44.609Z,62.02
2022-08-20T12:40:10.800Z,61.52
2022-08-20T12:42:35.696Z,62.26
2022-08-20T12:44:59.755Z,61.78
2022-08-20T12:47:24.177Z,62.74
2022-08-20T12:49:47.749Z,62.34
2022-08-20T12:52:11.008Z,62.63
2022-08-20T12:54:34.322Z,62.45
2022-08-20T12:56:57.522Z,63.29
2022-08-20T12:59:25.925Z,62.88
2022-08-20T13:01:49.538Z,63.12
2022-08-20T13:04:12.826Z,63.02
2022-08-20T13:06:36.036Z,63.23
2022-08-20T13:08:59.380Z,63.03
2022-08-20T13:11:22.689Z,62.99
2022-08-20T13:13:47.728Z,62.90
2022-08-20T13:16:12.405Z,62.97
2022-08-20T13:18:35.885Z,62.99
2022-08-20T13:20:59.157Z,62.77
2022-08-20T13:23:22.516Z,62.60
2022-08-20T13:25:45.784Z,62.65
2022-08-20T13:28:09.096Z,62.83
2022-08-20T13:30:32.504Z,62.82
2022-08-20T13:32:57.269Z,62.56
2022-08-20T13:35:20.792Z,62.87
2022-08-20T13:37:44.050Z,62.85
2022-08-20T13:40:08.583Z,63.12
2022-08-20T13:42:31.961Z,62.93
2022-08-20T13:44:55.337Z,62.81
2022-08-20T13:47:20.198Z,63.03
2022-08-20T13:49:44.867Z,63.03
2022-08-20T13:52:08.235Z,63.32
2022-08-20T13:54:31.762Z,63.38
2022-08-20T13:56:55.067Z,63.09
2022-08-20T13:59:18.454Z,63.09
2022-08-20T14:01:42.337Z,63.12
2022-08-20T14:04:05.933Z,63.18
2022-08-20T14:06:31.678Z,63.24
2022-08-20T14:08:55.067Z,62.87
2022-08-20T14:11:19.327Z,62.67
2022-08-20T14:13:42.809Z,62.48
2022-08-20T14:16:06.203Z,62.20
2022-08-20T14:18:44.986Z,62.06
2022-08-20T14:21:12.229Z,62.21
2022-08-20T14:23:37.235Z,62.27
2022-08-20T14:26:00.851Z,62.27
2022-08-20T14:28:24.981Z,62.04
2022-08-20T14:30:52.864Z,62.24
2022-08-20T14:33:16.834Z,62.27
2022-08-20T14:35:40.203Z,62.66
2022-08-20T14:38:05.420Z,62.45
2022-08-20T14:40:30.345Z,62.38
2022-08-20T14:42:53.834Z,62.66
2022-08-20T14:45:17.279Z,62.62
2022-08-20T14:47:42.362Z,62.31
2022-08-20T14:50:09.360Z,62.38
2022-08-20T14:52:33.021Z,62.02
2022-08-20T14:54:56.486Z,62.30
2022-08-20T14:57:21.237Z,62.26
2022-08-20T14:59:44.500Z,62.27
2022-08-20T15:02:08.658Z,62.42
2022-08-20T15:04:31.963Z,62.41
2022-08-20T15:06:55.199Z,62.53
2022-08-20T15:09:22.290Z,62.19
2022-08-20T15:11:46.097Z,61.97
2022-08-20T15:14:10.822Z,62.33
2022-08-20T15:16:34.392Z,62.35
2022-08-20T15:18:59.653Z,62.33
2022-08-20T15:21:23.289Z,62.40
2022-08-20T15:23:46.659Z,62.70
2022-08-20T15:26:09.914Z,62.63
2022-08-20T15:28:33.302Z,62.66
2022-08-20T15:30:58.124Z,62.73
2022-08-20T15:33:21.384Z,63.01
2022-08-20T15:35:44.731Z,62.47
2022-08-20T15:38:08.020Z,62.45
2022-08-20T15:40:32.517Z,62.50
2022-08-20T15:42:55.806Z,62.57
2022-08-20T15:45:22.077Z,62.63
2022-08-20T15:47:53.000Z,62.65
2022-08-20T15:50:19.201Z,62.90
2022-08-20T15:52:43.991Z,62.99
2022-08-20T15:55:08.129Z,62.87
2022-08-20T15:57:38.497Z,62.71
2022-08-20T16:00:10.347Z,62.85
2022-08-20T16:03:06.792Z,63.07
2022-08-20T16:05:37.954Z,62.93
2022-08-20T16:08:08.692Z,62.99
2022-08-20T16:10:36.254Z,62.87
2022-08-20T16:13:01.039Z,63.09
2022-08-20T16:15:25.478Z,63.33
2022-08-20T16:17:50.439Z,63.39
2022-08-20T16:20:18.833Z,62.91
2022-08-20T16:22:44.213Z,62.99
2022-08-20T16:25:08.121Z,63.25
2022-08-20T16:27:35.771Z,63.37
2022-08-20T16:30:01.362Z,63.35
2022-08-20T16:32:33.329Z,63.41
2022-08-20T16:34:57.948Z,63.26
2022-08-20T16:37:26.438Z,63.40
2022-08-20T16:39:53.460Z,63.08
2022-08-20T16:42:16.782Z,63.36
2022-08-20T16:44:40.890Z,63.41
2022-08-20T16:47:14.242Z,63.66
2022-08-20T16:49:38.347Z,64.04
2022-08-20T16:52:02.946Z,63.62
2022-08-20T16:54:28.305Z,63.97
2022-08-20T16:56:59.230Z,64.21
2022-08-20T16:59:27.059Z,64.13
2022-08-20T17:01:51.140Z,64.08
2022-08-20T17:04:20.922Z,64.25
2022-08-20T17:06:46.897Z,64.01
2022-08-20T17:09:12.357Z,63.81
2022-08-20T17:11:37.099Z,64.12
2022-08-20T17:14:14.090Z,64.05
2022-08-20T17:16:39.068Z,63.74
2022-08-20T17:19:09.527Z,64.22
2022-08-20T17:21:35.618Z,64.17
2022-08-20T17:24:00.265Z,64.04
2022-08-20T17:26:26.102Z,64.11
2022-08-20T17:28:55.860Z,64.07
2022-08-20T17:31:38.627Z,64.18
2022-08-20T17:34:02.531Z,63.94
2022-08-20T17:36:26.384Z,64.37
2022-08-20T17:38:51.014Z,64.31
2022-08-20T17:41:25.554Z,64.29
2022-08-20T17:43:48.937Z,64.09
2022-08-20T17:46:16.717Z,64.00
2022-08-20T17:48:42.666Z,64.22
2022-08-20T17:51:12.090Z,64.30
2022-08-20T17:53:39.206Z,64.08
2022-08-20T17:56:04.090Z,64.12
2022-08-20T17:58:32.742Z,64.19
2022-08-20T18:00:56.012Z,64.40
2022-08-20T18:03:23.462Z,64.55
2022-08-20T18:05:47.166Z,64.59
2022-08-20T18:08:16.742Z,64.75
2022-08-20T18:10:43.801Z,64.58
2022-08-20T18:13:09.378Z,64.73
2022-08-20T18:15:33.159Z,64.39
2022-08-20T18:18:04.574Z,64.42
2022-08-20T18:21:05.764Z,64.71
2022-08-20T18:23:29.797Z,64.39
2022-08-20T18:25:54.741Z,64.71
2022-08-20T18:28:20.318Z,64.72
2022-08-20T18:30:51.655Z,64.87
2022-08-20T18:33:15.018Z,64.66
2022-08-20T18:35:45.547Z,64.81
2022-08-20T18:38:26.048Z,64.69
2022-08-20T18:40:53.100Z,64.33
2022-08-20T18:43:27.425Z,64.67
2022-08-20T18:45:50.708Z,64.59
2022-08-20T18:48:21.861Z,65.28
2022-08-20T18:50:46.118Z,65.47
2022-08-20T18:53:12.554Z,65.51
2022-08-20T18:55:38.653Z,64.99
2022-08-20T18:58:02.748Z,64.58
2022-08-20T19:00:30.465Z,64.79
2022-08-20T19:02:56.580Z,64.71
2022-08-20T19:05:26.695Z,64.72
2022-08-20T19:07:49.943Z,64.55
2022-08-20T19:10:28.584Z,64.63
2022-08-20T19:13:33.313Z,64.65
2022-08-20T19:16:02.148Z,65.06
2022-08-20T19:18:26.892Z,64.81
2022-08-20T19:20:52.706Z,64.32
2022-08-20T19:23:20.087Z,64.22
2022-08-20T19:25:49.662Z,64.18
2022-08-20T19:28:18.751Z,64.05
2022-08-20T19:30:43.450Z,64.31
2022-08-20T19:33:09.215Z,63.94
2022-08-20T19:35:32.521Z,64.06
2022-08-20T19:37:55.902Z,64.30
2022-08-20T19:40:20.872Z,63.93
2022-08-20T19:42:44.427Z,64.14
2022-08-20T19:45:08.943Z,64.11
2022-08-20T19:47:34.701Z,63.98
2022-08-20T19:50:06.314Z,63.81
2022-08-20T19:52:37.062Z,64.12
2022-08-20T19:55:04.078Z,64.01
2022-08-20T19:57:27.590Z,63.93
2022-08-20T19:59:56.250Z,64.69
2022-08-20T20:02:20.597Z,64.26
2022-08-20T20:04:55.776Z,64.25
2022-08-20T20:07:24.139Z,63.76
2022-08-20T20:09:47.627Z,63.70
2022-08-20T20:12:22.527Z,63.71
2022-08-20T20:14:46.582Z,63.49
2022-08-20T20:17:14.535Z,63.94
2022-08-20T20:19:46.182Z,64.42
2022-08-20T20:22:19.637Z,64.06
2022-08-20T20:24:45.818Z,64.07
2022-08-20T20:27:10.462Z,63.96
2022-08-20T20:29:37.623Z,63.57
2022-08-20T20:32:01.321Z,63.75
2022-08-20T20:34:26.651Z,63.69
2022-08-20T20:36:50.045Z,63.88
2022-08-20T20:39:26.027Z,63.43
2022-08-20T20:41:53.441Z,63.95
2022-08-20T20:44:20.395Z,64.17
2022-08-20T20:46:46.135Z,64.92
2022-08-20T20:49:16.646Z,65.67
2022-08-20T20:51:41.211Z,65.79
2022-08-20T20:54:06.719Z,65.08
2022-08-20T20:56:32.804Z,64.77
2022-08-20T20:58:58.612Z,64.72
2022-08-20T21:01:27.224Z,64.56
2022-08-20T21:04:05.364Z,65.25
2022-08-20T21:06:29.426Z,65.25
2022-08-20T21:08:52.860Z,65.39
2022-08-20T21:11:16.138Z,65.24
2022-08-20T21:13:39.432Z,64.64
2022-08-20T21:16:09.436Z,64.60
2022-08-20T21:18:36.456Z,64.73
2022-08-20T21:20:59.718Z,64.78
2022-08-20T21:23:40.007Z,65.05
2022-08-20T21:26:05.597Z,65.42
2022-08-20T21:28:28.928Z,65.69
2022-08-20T21:30:58.602Z,65.71
2022-08-20T21:33:23.419Z,65.02
2022-08-20T21:35:46.869Z,64.88
2022-08-20T21:38:10.164Z,65.22
2022-08-20T21:40:37.259Z,64.75
2022-08-20T21:43:00.478Z,64.85
2022-08-20T21:45:24.028Z,65.61
2022-08-20T21:47:51.665Z,65.35
2022-08-20T21:50:16.575Z,65.02
2022-08-20T21:52:42.366Z,65.54
2022-08-20T21:55:21.443Z,65.76
2022-08-20T21:57:44.733Z,66.11
2022-08-20T22:00:12.429Z,65.52
2022-08-20T22:02:35.705Z,64.88
2022-08-20T22:04:59.123Z,65.11
2022-08-20T22:07:23.763Z,65.45
2022-08-20T22:09:47.088Z,65.92
2022-08-20T22:12:15.760Z,65.44
2022-08-20T22:14:39.061Z,65.30
2022-08-20T22:17:02.295Z,65.24
2022-08-20T22:19:25.670Z,65.37
2022-08-20T22:21:49.489Z,65.38
2022-08-20T22:24:14.250Z,66.03
2022-08-20T22:26:38.334Z,65.90
2022-08-20T22:29:01.662Z,65.56
2022-08-20T22:31:27.301Z,66.24
2022-08-20T22:33:50.678Z,66.74
2022-08-20T22:36:13.933Z,66.83
2022-08-20T22:38:37.257Z,66.48
2022-08-20T22:41:04.239Z,65.75
2022-08-20T22:43:30.990Z,65.10
2022-08-20T22:45:55.638Z,64.52
2022-08-20T22:48:19.869Z,64.37
2022-08-20T22:50:43.135Z,64.89
2022-08-20T22:53:06.426Z,65.51
2022-08-20T22:55:29.661Z,65.92
2022-08-20T22:57:54.417Z,66.34
2022-08-20T23:00:20.293Z,66.36
2022-08-20T23:02:43.847Z,66.55
2022-08-20T23:05:07.634Z,66.49
2022-08-20T23:07:31.158Z,66.42
2022-08-20T23:09:54.442Z,66.44
2022-08-20T23:12:17.670Z,66.58
2022-08-20T23:14:42.444Z,66.07
2022-08-20T23:17:11.343Z,65.96
2022-08-20T23:19:36.426Z,66.54
2022-08-20T23:21:59.770Z,66.54
2022-08-20T23:24:23.005Z,66.60
2022-08-20T23:26:52.416Z,66.46
2022-08-20T23:29:16.694Z,65.94
2022-08-20T23:31:47.268Z,65.56
2022-08-20T23:34:11.649Z,65.61
2022-08-20T23:36:36.518Z,65.32
2022-08-20T23:38:59.762Z,65.88
2022-08-20T23:41:24.547Z,66.27
2022-08-20T23:43:47.775Z,66.36
2022-08-20T23:46:11.198Z,66.24
2022-08-20T23:48:35.985Z,66.83
2022-08-20T23:50:59.295Z,66.77
2022-08-20T23:53:22.534Z,66.94
2022-08-20T23:55:46.334Z,66.89
2022-08-20T23:58:09.758Z,67.06
